Time;durP1;ratioP1;P1;durP2;ratioP2;P2;SDS_P1;SDS_P2;PMS_P1;PMS_P2;Temp;Humidity;BMP_temperature;BMP_pressure;BME280_temperature;BME280_humidity;BME280_pressure;Samples;Min_cycle;Max_cycle;Signal;HPM_P1;HPM_P2
2024/02/07 06:09:08;;;;;;;0.10;0.10;;;12.90;86.40;;;;;;6149276;23;21268;31
2024/02/07 06:11:41;;;;;;;0.10;0.10;;;12.90;86.50;;;;;;6089780;23;20025;-82
2024/02/07 06:14:07;;;;;;;;;;;12.90;86.70;;;;;;6101648;23;20075;-83
2024/02/07 06:16:34;;;;;;;0.10;0.10;;;12.90;86.80;;;;;;6102254;23;20235;-82
2024/02/07 06:19:03;;;;;;;0.00;0.00;;;12.90;87.00;;;;;;6101642;23;20006;-91
2024/02/07 06:21:32;;;;;;;0.10;0.10;;;12.90;86.90;;;;;;6101108;23;20010;-87
2024/02/07 06:23:58;;;;;;;0.10;0.10;;;12.90;87.00;;;;;;6100458;23;20042;-88
2024/02/07 06:26:24;;;;;;;0.10;0.10;;;12.90;87.00;;;;;;6101025;23;20017;-86
2024/02/07 06:31:27;;;;;;;0.10;0.10;;;12.90;87.10;;;;;;6163232;23;20055;-86
2024/02/07 06:33:53;;;;;;;0.10;0.10;;;12.90;87.40;;;;;;6188453;23;20013;-88
2024/02/07 06:36:19;;;;;;;0.10;0.10;;;12.90;87.50;;;;;;6162475;23;20055;-88
2024/02/07 06:38:44;;;;;;;0.10;0.10;;;12.80;87.60;;;;;;6161776;23;20001;-85
2024/02/07 06:41:10;;;;;;;0.10;0.10;;;12.90;87.60;;;;;;6188052;23;19997;-86
2024/02/07 06:43:36;;;;;;;0.10;0.10;;;12.90;87.50;;;;;;6187310;23;20484;-86
2024/02/07 06:46:04;;;;;;;0.10;0.10;;;12.90;87.40;;;;;;6189087;23;20008;-87
2024/02/07 06:48:30;;;;;;;0.10;0.10;;;13.00;87.30;;;;;;6162857;23;20005;-86
2024/02/07 06:53:30;;;;;;;0.10;0.10;;;12.90;87.50;;;;;;6122027;23;20030;-87
2024/02/07 06:55:56;;;;;;;0.10;0.10;;;12.90;87.50;;;;;;6128978;23;20013;-87
2024/02/07 06:58:22;;;;;;;0.10;0.10;;;12.90;87.50;;;;;;6129893;23;20047;-90
2024/02/07 07:00:47;;;;;;;0.10;0.10;;;12.90;87.40;;;;;;6128520;23;20060;-87
2024/02/07 07:03:13;;;;;;;0.10;0.10;;;13.00;87.40;;;;;;6128872;23;20160;-83
2024/02/07 07:05:39;;;;;;;0.10;0.10;;;13.00;87.30;;;;;;6131113;23;20009;-84
2024/02/07 07:08:04;;;;;;;0.10;0.10;;;13.00;87.30;;;;;;6130461;23;20337;-76
2024/02/07 07:10:30;;;;;;;0.10;0.10;;;12.90;87.40;;;;;;6130139;23;20005;-77
2024/02/07 07:12:56;;;;;;;0.10;0.10;;;12.90;87.40;;;;;;6123357;23;20029;-76
2024/02/07 07:15:21;;;;;;;0.20;0.20;;;12.90;87.50;;;;;;6155469;23;20333;-76
2024/02/07 07:17:47;;;;;;;0.10;0.10;;;12.90;87.80;;;;;;6134083;23;20444;-77
2024/02/07 07:20:13;;;;;;;0.10;0.10;;;12.90;87.90;;;;;;6134629;23;20377;-77
2024/02/07 07:22:38;;;;;;;0.10;0.10;;;12.80;88.00;;;;;;6160179;23;20056;-76
2024/02/07 07:25:04;;;;;;;0.10;0.10;;;12.90;88.20;;;;;;6133912;23;20009;-77
2024/02/07 07:27:30;;;;;;;0.10;0.10;;;12.90;88.10;;;;;;6134293;23;20009;-77
2024/02/07 07:29:56;;;;;;;0.10;0.10;;;12.90;88.10;;;;;;6133994;23;20081;-76
2024/02/07 07:32:22;;;;;;;0.10;0.10;;;12.80;88.40;;;;;;6160080;23;20006;-77
2024/02/07 07:34:47;;;;;;;0.10;0.10;;;12.80;88.50;;;;;;6160015;23;20001;-77
2024/02/07 07:37:13;;;;;;;0.10;0.10;;;12.80;88.60;;;;;;6134498;23;20009;-77
2024/02/07 07:39:41;;;;;;;0.10;0.10;;;12.80;88.70;;;;;;6160631;23;20009;-77
2024/02/07 07:42:06;;;;;;;0.10;0.10;;;12.90;88.60;;;;;;6160232;23;20001;-77
2024/02/07 07:44:32;;;;;;;0.10;0.10;;;12.80;88.70;;;;;;6159823;23;20056;-77
2024/02/07 07:46:57;;;;;;;0.10;0.10;;;12.80;89.10;;;;;;6159950;23;20083;-76
2024/02/07 07:49:23;;;;;;;0.10;0.10;;;12.80;89.00;;;;;;6160196;23;20008;-76
2024/02/07 07:51:49;;;;;;;0.10;0.10;;;12.80;88.90;;;;;;6160153;23;20001;-76
2024/02/07 07:54:14;;;;;;;0.10;0.10;;;12.80;88.80;;;;;;6159964;23;20005;-77
2024/02/07 07:56:43;;;;;;;0.00;0.00;;;12.90;88.80;;;;;;6134438;23;20009;-77
2024/02/07 07:59:09;;;;;;;0.10;0.10;;;12.90;88.70;;;;;;6159588;23;20321;-76
2024/02/07 08:01:35;;;;;;;0.10;0.10;;;13.00;88.70;;;;;;6160452;23;20001;-76
2024/02/07 08:04:00;;;;;;;0.10;0.10;;;13.00;88.60;;;;;;6160414;23;20008;-75
2024/02/07 08:06:26;;;;;;;0.10;0.10;;;13.00;88.60;;;;;;6159608;23;20333;-76
2024/02/07 08:08:51;;;;;;;0.10;0.10;;;13.00;88.50;;;;;;6159729;23;19997;-77
2024/02/07 08:11:17;;;;;;;0.10;0.10;;;13.00;88.50;;;;;;6160075;23;20012;-76
2024/02/07 08:13:43;;;;;;;0.10;0.10;;;13.00;88.40;;;;;;6159804;23;20353;-76
2024/02/07 08:16:08;;;;;;;0.10;0.10;;;13.00;88.40;;;;;;6159788;23;20002;-76
2024/02/07 08:18:34;;;;;;;0.10;0.10;;;13.00;88.50;;;;;;6159529;23;20010;-76
2024/02/07 08:21:00;;;;;;;0.10;0.10;;;13.10;88.50;;;;;;6133446;23;20484;-76
2024/02/07 08:23:26;;;;;;;0.10;0.10;;;13.00;88.60;;;;;;6133789;23;20068;-76
2024/02/07 08:25:51;;;;;;;0.10;0.10;;;13.00;88.90;;;;;;6159479;23;20076;-77
2024/02/07 08:28:17;;;;;;;0.10;0.10;;;13.00;89.10;;;;;;6160002;23;20025;-76
2024/02/07 08:30:43;;;;;;;0.10;0.10;;;13.00;89.10;;;;;;6133792;23;20438;-77
2024/02/07 08:33:08;;;;;;;0.10;0.10;;;13.00;89.20;;;;;;6133541;23;20330;-76
2024/02/07 08:35:34;;;;;;;0.10;0.10;;;13.00;89.20;;;;;;6159964;23;20077;-77
2024/02/07 08:38:00;;;;;;;0.10;0.10;;;13.00;89.20;;;;;;6134376;23;20078;-76
2024/02/07 08:40:26;;;;;;;0.10;0.10;;;13.00;89.20;;;;;;6159504;23;20516;-76
2024/02/07 08:42:52;;;;;;;0.10;0.10;;;13.00;89.20;;;;;;6133385;23;20056;-76
2024/02/07 08:45:17;;;;;;;0.10;0.10;;;13.10;89.20;;;;;;6159451;23;20003;-76
2024/02/07 08:47:45;;;;;;;0.10;0.10;;;13.10;89.20;;;;;;6159464;23;20002;-77
2024/02/07 08:50:11;;;;;;;0.10;0.10;;;13.10;89.10;;;;;;6159762;23;20104;-76
2024/02/07 08:52:40;;;;;;;0.10;0.10;;;13.10;89.20;;;;;;6133564;23;20361;-76
2024/02/07 08:55:09;;;;;;;0.10;0.10;;;13.10;89.30;;;;;;6133017;23;20063;-76
2024/02/07 08:57:36;;;;;;;0.10;0.10;;;13.10;89.30;;;;;;6132857;23;20061;-77
2024/02/07 09:00:03;;;;;;;0.10;0.10;;;13.10;89.40;;;;;;6159756;23;20033;-76
2024/02/07 09:02:28;;;;;;;0.10;0.10;;;13.10;89.50;;;;;;6159449;23;20002;-76
2024/02/07 09:04:56;;;;;;;0.10;0.10;;;13.10;89.60;;;;;;6159561;23;20001;-76
2024/02/07 09:07:22;;;;;;;0.10;0.10;;;13.20;89.70;;;;;;6159070;23;20001;-77
2024/02/07 09:09:48;;;;;;;0.10;0.10;;;13.20;89.60;;;;;;6160098;23;20005;-76
2024/02/07 09:12:13;;;;;;;0.10;0.10;;;13.20;89.70;;;;;;6133573;23;20005;-76
2024/02/07 09:14:39;;;;;;;0.10;0.10;;;13.30;89.60;;;;;;6159209;23;20009;-76
2024/02/07 09:17:04;;;;;;;0.10;0.10;;;13.30;89.50;;;;;;6159605;23;20064;-76
2024/02/07 09:19:30;;;;;;;0.10;0.10;;;13.30;89.70;;;;;;6159706;23;20033;-76
2024/02/07 09:21:56;;;;;;;0.10;0.10;;;13.30;89.70;;;;;;6158759;23;20441;-76
2024/02/07 09:24:21;;;;;;;0.10;0.10;;;13.30;89.70;;;;;;6159402;23;20008;-76
2024/02/07 09:26:47;;;;;;;0.10;0.10;;;13.40;89.50;;;;;;6159528;23;20056;-76
2024/02/07 09:29:12;;;;;;;0.10;0.10;;;13.40;89.50;;;;;;6132963;23;20001;-76
2024/02/07 09:31:38;;;;;;;0.00;0.00;;;13.40;89.60;;;;;;6133887;23;20001;-76
2024/02/07 09:34:04;;;;;;;0.10;0.10;;;13.40;89.80;;;;;;6159052;23;20002;-77
2024/02/07 09:36:29;;;;;;;0.10;0.10;;;13.40;89.70;;;;;;6133182;23;20060;-76
2024/02/07 09:38:55;;;;;;;0.10;0.10;;;13.40;89.70;;;;;;6133217;23;20005;-77
2024/02/07 09:41:22;;;;;;;0.10;0.10;;;13.50;89.90;;;;;;6159483;23;20006;-76
2024/02/07 09:43:50;;;;;;;0.10;0.10;;;13.40;90.00;;;;;;6159059;23;20005;-77
2024/02/07 09:46:18;;;;;;;0.10;0.10;;;13.50;90.00;;;;;;6132758;23;20013;-76
2024/02/07 09:48:44;;;;;;;0.05;0.05;;;13.50;90.10;;;;;;6158925;23;19998;-76
2024/02/07 09:51:14;;;;;;;0.10;0.10;;;13.50;90.00;;;;;;6133329;23;20032;-77
2024/02/07 09:53:42;;;;;;;0.10;0.10;;;13.60;90.10;;;;;;6133239;23;20010;-77
2024/02/07 09:56:08;;;;;;;0.10;0.10;;;13.60;90.10;;;;;;6158981;23;20032;-77
2024/02/07 09:58:35;;;;;;;0.10;0.10;;;13.60;90.20;;;;;;6159368;23;20053;-77
2024/02/07 10:01:00;;;;;;;0.00;0.00;;;13.60;90.20;;;;;;6159394;23;20014;-77
2024/02/07 10:03:30;;;;;;;0.10;0.10;;;13.60;90.10;;;;;;6158793;23;20001;-77
2024/02/07 10:05:57;;;;;;;0.10;0.10;;;13.60;90.20;;;;;;6132854;23;20091;-76
2024/02/07 10:08:24;;;;;;;0.10;0.10;;;13.60;90.20;;;;;;6159260;23;20024;-77
2024/02/07 10:10:51;;;;;;;0.10;0.10;;;13.60;90.20;;;;;;6132373;23;20524;-76
2024/02/07 10:13:17;;;;;;;0.10;0.10;;;13.60;90.40;;;;;;6133250;23;20083;-77
2024/02/07 10:15:44;;;;;;;0.10;0.10;;;13.70;90.20;;;;;;6159058;23;20073;-76
2024/02/07 10:18:10;;;;;;;0.00;0.00;;;13.70;90.30;;;;;;6159273;23;19997;-76
2024/02/07 10:20:36;;;;;;;0.10;0.10;;;13.70;90.40;;;;;;6159137;23;19998;-77
2024/02/07 10:23:06;;;;;;;0.10;0.10;;;13.70;90.20;;;;;;6132645;23;20012;-76
2024/02/07 10:25:31;;;;;;;0.10;0.10;;;13.80;90.40;;;;;;6159069;23;20004;-77
2024/02/07 10:28:05;;;;;;;0.00;0.00;;;13.80;90.60;;;;;;6159065;23;20080;-77
2024/02/07 10:30:31;;;;;;;0.10;0.10;;;13.80;90.40;;;;;;6159029;23;20053;-76
2024/02/07 10:32:57;;;;;;;0.10;0.10;;;13.80;90.40;;;;;;6159131;23;20033;-77
2024/02/07 10:35:22;;;;;;;0.00;0.00;;;13.80;90.40;;;;;;6158774;23;20081;-76
2024/02/07 10:37:52;;;;;;;0.10;0.10;;;13.80;90.20;;;;;;6159435;23;20437;-76
2024/02/07 10:40:19;;;;;;;0.10;0.10;;;13.90;90.30;;;;;;6158601;23;20001;-76
2024/02/07 10:42:52;;;;;;;0.00;0.00;;;13.90;90.30;;;;;;6132971;23;20017;-77
2024/02/07 10:45:18;;;;;;;0.10;0.10;;;13.90;90.40;;;;;;6160017;23;20080;-77
2024/02/07 10:47:44;;;;;;;0.10;0.10;;;13.90;90.20;;;;;;6160891;23;20009;-76
2024/02/07 10:50:10;;;;;;;0.10;0.10;;;14.00;90.20;;;;;;6133714;23;20006;-77
2024/02/07 10:52:38;;;;;;;0.00;0.00;;;14.10;90.10;;;;;;6134596;23;20024;-77
2024/02/07 10:55:06;;;;;;;0.10;0.10;;;14.10;90.10;;;;;;6160568;23;20050;-77
2024/02/07 10:57:38;;;;;;;0.10;0.10;;;14.10;90.00;;;;;;6160535;23;20005;-77
2024/02/07 11:00:05;;;;;;;0.10;0.10;;;14.10;90.10;;;;;;6161120;23;20024;-77
2024/02/07 11:02:31;;;;;;;0.03;0.03;;;14.00;90.50;;;;;;6160368;23;20548;-77
2024/02/07 11:04:59;;;;;;;0.00;0.00;;;14.00;90.40;;;;;;6160768;23;20028;-76
2024/02/07 11:07:26;;;;;;;0.10;0.10;;;14.00;90.40;;;;;;6160086;23;20009;-77
2024/02/07 11:09:53;;;;;;;0.10;0.10;;;14.10;90.50;;;;;;6160782;23;19997;-77
2024/02/07 11:12:19;;;;;;;0.10;0.10;;;14.10;90.30;;;;;;6160507;23;19998;-77
2024/02/07 11:14:46;;;;;;;0.10;0.10;;;14.20;90.40;;;;;;6159795;23;20009;-77
2024/02/07 11:17:16;;;;;;;0.10;0.10;;;14.20;90.30;;;;;;6134599;23;20009;-77
2024/02/07 11:19:46;;;;;;;0.10;0.10;;;14.20;90.30;;;;;;6160547;23;20493;-77
2024/02/07 11:22:28;;;;;;;0.10;0.10;;;14.30;90.10;;;;;;6134204;23;20009;-77
2024/02/07 11:24:56;;;;;;;0.00;0.00;;;14.30;90.20;;;;;;6160492;23;20345;-77
2024/02/07 11:27:22;;;;;;;0.00;0.00;;;14.30;90.10;;;;;;6160224;23;20132;-77
2024/02/07 11:29:48;;;;;;;0.10;0.10;;;14.30;90.20;;;;;;6160767;23;20353;-77
2024/02/07 11:32:14;;;;;;;0.10;0.10;;;14.20;90.20;;;;;;6134057;23;20037;-77
2024/02/07 11:34:40;;;;;;;0.10;0.10;;;14.20;90.40;;;;;;6160535;23;20005;-76
2024/02/07 11:37:10;;;;;;;0.00;0.00;;;14.20;90.40;;;;;;6159750;23;20002;-77
2024/02/07 11:39:39;;;;;;;0.10;0.10;;;14.20;90.40;;;;;;6134520;23;20461;-76
2024/02/07 11:42:15;;;;;;;0.10;0.10;;;14.20;90.40;;;;;;6134386;23;20009;-76
2024/02/07 11:45:00;;;;;;;0.10;0.10;;;14.30;90.50;;;;;;6134286;23;20028;-77
2024/02/07 11:47:26;;;;;;;0.10;0.10;;;14.30;90.30;;;;;;6134073;23;20060;-77
2024/02/07 11:49:55;;;;;;;0.10;0.10;;;14.30;90.20;;;;;;6160380;23;20311;-76
2024/02/07 11:52:28;;;;;;;0.10;0.10;;;14.30;90.20;;;;;;6134448;23;20377;-77
2024/02/07 11:54:59;;;;;;;0.10;0.10;;;14.20;90.20;;;;;;6160302;23;20408;-77
2024/02/07 11:57:25;;;;;;;0.00;0.00;;;14.30;90.40;;;;;;6159943;23;20016;-77
2024/02/07 11:59:51;;;;;;;0.10;0.10;;;14.30;90.20;;;;;;6160174;23;20001;-77
2024/02/07 12:02:18;;;;;;;0.10;0.10;;;14.40;90.10;;;;;;6133301;23;20064;-77
2024/02/07 12:04:44;;;;;;;0.10;0.10;;;14.40;90.00;;;;;;6160169;23;20001;-77
2024/02/07 12:07:11;;;;;;;0.10;0.10;;;14.40;90.10;;;;;;6133170;23;20033;-77
2024/02/07 12:09:37;;;;;;;0.10;0.10;;;14.40;90.10;;;;;;6133920;23;20009;-77
2024/02/07 12:12:03;;;;;;;0.10;0.10;;;14.40;89.90;;;;;;6133966;23;20425;-77
2024/02/07 12:14:29;;;;;;;0.10;0.10;;;14.40;89.80;;;;;;6159854;23;20017;-77
2024/02/07 12:16:54;;;;;;;0.10;0.10;;;14.40;90.00;;;;;;6159289;23;20009;-77
2024/02/07 12:19:20;;;;;;;0.10;0.10;;;14.40;90.00;;;;;;6160065;23;20008;-77
2024/02/07 12:21:46;;;;;;;0.10;0.10;;;14.40;90.00;;;;;;6159733;23;20009;-77
2024/02/07 12:24:13;;;;;;;0.10;0.10;;;14.40;90.00;;;;;;6159781;23;20008;-77
2024/02/07 12:26:39;;;;;;;0.10;0.10;;;14.40;89.90;;;;;;6159570;23;20080;-77
2024/02/07 12:29:06;;;;;;;0.10;0.10;;;14.40;89.90;;;;;;6134134;23;20058;-77
2024/02/07 12:31:33;;;;;;;0.03;0.03;;;14.40;89.90;;;;;;6133977;23;20064;-77
2024/02/07 12:33:59;;;;;;;0.10;0.10;;;14.40;89.90;;;;;;6160122;23;20002;-77
2024/02/07 12:36:24;;;;;;;0.10;0.10;;;14.40;90.00;;;;;;6133686;23;20020;-79
2024/02/07 12:38:54;;;;;;;0.00;0.00;;;14.40;89.90;;;;;;6133788;23;20029;-81
2024/02/07 12:41:20;;;;;;;0.10;0.10;;;14.50;90.00;;;;;;6157772;23;20001;-81
2024/02/07 12:43:45;;;;;;;0.10;0.10;;;14.40;90.00;;;;;;6157160;23;20005;-82
2024/02/07 12:46:11;;;;;;;0.10;0.10;;;14.40;90.10;;;;;;6133041;23;20009;-81
2024/02/07 12:48:37;;;;;;;0.00;0.00;;;14.50;90.00;;;;;;6132133;23;20006;-82
2024/02/07 12:51:04;;;;;;;0.10;0.10;;;14.50;90.00;;;;;;6133082;23;20002;-82
2024/02/07 12:53:30;;;;;;;0.00;0.00;;;14.50;89.90;;;;;;6159594;23;20029;-81
2024/02/07 12:55:56;;;;;;;0.10;0.10;;;14.50;90.10;;;;;;6159642;23;20004;-82
2024/02/07 12:58:21;;;;;;;0.10;0.10;;;14.50;90.10;;;;;;6159087;23;20012;-82
2024/02/07 13:00:47;;;;;;;0.10;0.10;;;14.60;89.90;;;;;;6133266;23;20005;-82
2024/02/07 13:03:13;;;;;;;0.10;0.10;;;14.60;90.00;;;;;;6159133;23;20002;-82
2024/02/07 13:05:39;;;;;;;0.00;0.00;;;14.60;89.70;;;;;;6159713;23;20004;-82
2024/02/07 13:08:09;;;;;;;0.10;0.10;;;14.60;89.70;;;;;;6132887;23;20005;-82
2024/02/07 13:10:37;;;;;;;0.10;0.10;;;14.60;89.70;;;;;;6133655;23;20001;-83
2024/02/07 13:13:04;;;;;;;0.10;0.10;;;14.60;89.50;;;;;;6132965;23;20397;-82
2024/02/07 13:15:29;;;;;;;0.10;0.10;;;14.70;89.70;;;;;;6158098;23;20036;-82
2024/02/07 13:17:55;;;;;;;0.10;0.10;;;14.70;89.60;;;;;;6159568;23;20005;-81
2024/02/07 13:20:21;;;;;;;0.10;0.10;;;14.70;89.50;;;;;;6159762;23;20005;-82
2024/02/07 13:22:46;;;;;;;0.00;0.00;;;14.70;89.70;;;;;;6159349;23;20512;-82
2024/02/07 13:25:14;;;;;;;0.00;0.00;;;14.70;89.60;;;;;;6158984;23;20026;-82
2024/02/07 13:27:42;;;;;;;0.10;0.10;;;14.70;89.60;;;;;;6159397;23;20041;-82
2024/02/07 13:30:09;;;;;;;0.05;0.05;;;14.70;89.50;;;;;;6159813;23;20005;-81
2024/02/07 13:32:35;;;;;;;0.10;0.10;;;14.70;89.40;;;;;;6159285;23;20001;-82
2024/02/07 13:35:02;;;;;;;0.10;0.10;;;14.70;89.50;;;;;;6132369;23;20001;-81
2024/02/07 13:37:27;;;;;;;0.10;0.10;;;14.70;89.50;;;;;;6108758;23;20465;-81
2024/02/07 13:39:55;;;;;;;0.10;0.10;;;14.80;89.50;;;;;;6133478;23;20014;-81
2024/02/07 13:42:20;;;;;;;0.10;0.10;;;14.80;89.40;;;;;;6159456;23;20006;-81
2024/02/07 13:44:46;;;;;;;0.10;0.10;;;14.80;89.20;;;;;;6159245;23;20012;-81
2024/02/07 13:47:12;;;;;;;0.00;0.00;;;14.80;89.30;;;;;;6159369;23;20006;-81
2024/02/07 13:49:37;;;;;;;0.10;0.10;;;14.80;89.10;;;;;;6133600;23;20080;-81
2024/02/07 13:52:03;;;;;;;0.10;0.10;;;14.80;89.30;;;;;;6159242;23;20002;-81
2024/02/07 13:54:29;;;;;;;0.10;0.10;;;14.80;89.10;;;;;;6133117;23;20005;-80
2024/02/07 13:56:55;;;;;;;0.10;0.10;;;14.70;89.30;;;;;;6160038;23;20016;-81
2024/02/07 13:59:21;;;;;;;0.10;0.10;;;14.80;89.30;;;;;;6158911;23;20006;-78
2024/02/07 14:01:46;;;;;;;0.10;0.10;;;14.70;89.30;;;;;;6159490;23;20012;-80
2024/02/07 14:04:12;;;;;;;0.10;0.10;;;14.80;89.20;;;;;;6158857;23;20028;-81
2024/02/07 14:06:38;;;;;;;0.10;0.10;;;14.80;89.20;;;;;;6159538;23;20443;-80
2024/02/07 14:09:03;;;;;;;0.10;0.10;;;14.70;89.40;;;;;;6159265;23;19998;-81
2024/02/07 14:11:29;;;;;;;0.10;0.10;;;14.80;89.30;;;;;;6159388;23;20001;-81
2024/02/07 14:13:55;;;;;;;0.10;0.10;;;14.70;89.30;;;;;;6159373;23;20012;-81
2024/02/07 14:16:20;;;;;;;0.10;0.10;;;14.70;89.30;;;;;;6159089;23;20013;-80
2024/02/07 14:18:46;;;;;;;0.10;0.10;;;14.70;89.30;;;;;;6133132;23;20449;-80
2024/02/07 14:21:12;;;;;;;0.10;0.10;;;14.70;89.50;;;;;;6134507;23;20009;-80
2024/02/07 14:23:37;;;;;;;0.10;0.10;;;14.70;89.30;;;;;;6134979;23;20017;-81
2024/02/07 14:26:04;;;;;;;0.10;0.10;;;14.70;89.40;;;;;;6134722;23;20010;-80
2024/02/07 14:28:29;;;;;;;0.10;0.10;;;14.70;89.30;;;;;;6160856;23;19997;-80
2024/02/07 14:30:55;;;;;;;0.10;0.10;;;14.70;89.40;;;;;;6134492;23;20001;-81
2024/02/07 14:33:21;;;;;;;0.10;0.10;;;14.80;89.20;;;;;;6135007;23;20005;-80
2024/02/07 14:35:46;;;;;;;0.10;0.10;;;14.80;89.30;;;;;;6160669;23;19997;-80
2024/02/07 14:38:16;;;;;;;0.10;0.10;;;14.80;89.30;;;;;;6160997;23;20065;-80
2024/02/07 14:40:41;;;;;;;0.10;0.10;;;14.90;89.20;;;;;;6160612;23;19999;-80
2024/02/07 14:43:07;;;;;;;0.10;0.10;;;14.90;89.20;;;;;;6160297;23;20004;-81
2024/02/07 14:45:34;;;;;;;0.00;0.00;;;14.90;88.90;;;;;;6160947;23;20029;-80
2024/02/07 14:48:04;;;;;;;0.10;0.10;;;14.90;89.20;;;;;;6155558;23;20333;-80
2024/02/07 14:50:29;;;;;;;0.10;0.10;;;15.00;89.20;;;;;;6161036;23;20005;-80
2024/02/07 14:52:55;;;;;;;0.10;0.10;;;15.10;89.00;;;;;;6134252;23;20150;-81
2024/02/07 14:55:21;;;;;;;0.10;0.10;;;15.20;88.80;;;;;;6160641;23;20002;-81
2024/02/07 14:57:46;;;;;;;0.10;0.10;;;15.20;88.70;;;;;;6160214;23;20006;-80
2024/02/07 15:00:15;;;;;;;0.10;0.10;;;15.30;88.50;;;;;;6159591;23;20006;-80
2024/02/07 15:02:41;;;;;;;0.10;0.10;;;15.40;88.40;;;;;;6159656;23;20006;-80
2024/02/07 15:05:10;;;;;;;0.10;0.10;;;15.40;88.40;;;;;;6159724;23;20006;-80
2024/02/07 15:07:36;;;;;;;0.10;0.10;;;15.50;88.20;;;;;;6134551;23;20056;-80
2024/02/07 15:10:02;;;;;;;0.10;0.10;;;15.50;88.00;;;;;;6133500;23;20001;-80
2024/02/07 15:12:27;;;;;;;0.10;0.10;;;15.50;87.80;;;;;;6158381;23;20013;-81
2024/02/07 15:14:53;;;;;;;0.10;0.10;;;15.50;87.90;;;;;;6159475;23;20013;-80
2024/02/07 15:17:19;;;;;;;0.10;0.10;;;15.60;87.80;;;;;;6159661;23;20002;-81
2024/02/07 15:19:44;;;;;;;0.10;0.10;;;15.50;87.80;;;;;;6133909;23;20006;-81
2024/02/07 15:22:10;;;;;;;0.10;0.10;;;15.50;87.50;;;;;;6160172;23;20068;-80
2024/02/07 15:24:36;;;;;;;0.10;0.10;;;15.60;87.50;;;;;;6132457;23;20092;-81
2024/02/07 15:27:02;;;;;;;0.10;0.10;;;15.60;87.30;;;;;;6159659;23;20337;-82
2024/02/07 15:29:27;;;;;;;0.10;0.10;;;15.60;87.40;;;;;;6133068;23;20021;-82
2024/02/07 15:31:55;;;;;;;0.00;0.00;;;15.60;87.20;;;;;;6158453;23;19998;-81
2024/02/07 15:34:21;;;;;;;0.00;0.00;;;15.60;87.30;;;;;;6133418;23;20028;-81
2024/02/07 15:36:47;;;;;;;0.10;0.10;;;15.50;86.80;;;;;;6156684;23;20001;-80
2024/02/07 15:39:13;;;;;;;0.10;0.10;;;15.50;87.40;;;;;;6157925;23;20001;-80
2024/02/07 15:41:38;;;;;;;0.00;0.00;;;15.30;87.10;;;;;;6159233;23;20008;-81
2024/02/07 15:44:04;;;;;;;0.10;0.10;;;15.30;87.30;;;;;;6158248;23;20012;-80
2024/02/07 15:46:29;;;;;;;0.10;0.10;;;15.30;87.30;;;;;;6159720;23;20433;-80
2024/02/07 15:48:55;;;;;;;0.10;0.10;;;15.30;87.30;;;;;;6160142;23;20001;-80
2024/02/07 15:51:24;;;;;;;0.00;0.00;;;15.30;87.40;;;;;;6133335;23;20009;-80
2024/02/07 15:53:49;;;;;;;0.00;0.00;;;15.30;87.30;;;;;;6132331;23;20020;-80
2024/02/07 15:56:15;;;;;;;0.10;0.10;;;15.30;87.20;;;;;;6159090;23;20009;-80
2024/02/07 15:58:41;;;;;;;0.10;0.10;;;15.30;87.30;;;;;;6158853;23;19997;-80
2024/02/07 16:01:06;;;;;;;0.00;0.00;;;15.20;87.20;;;;;;6132610;23;20010;-81
2024/02/07 16:03:32;;;;;;;0.10;0.10;;;15.20;87.20;;;;;;6132979;23;20025;-80
2024/02/07 16:05:59;;;;;;;0.10;0.10;;;15.20;87.40;;;;;;6132371;23;20016;-81
2024/02/07 16:08:25;;;;;;;0.10;0.10;;;15.20;87.30;;;;;;6160388;23;20370;-80
2024/02/07 16:10:51;;;;;;;0.00;0.00;;;15.20;87.40;;;;;;6159929;23;20008;-80
2024/02/07 16:13:16;;;;;;;0.00;0.00;;;15.20;87.40;;;;;;6159571;23;20396;-81
2024/02/07 16:15:42;;;;;;;0.00;0.00;;;15.10;87.50;;;;;;6134411;23;20001;-81
2024/02/07 16:18:08;;;;;;;0.10;0.10;;;15.10;87.60;;;;;;6133844;23;20013;-80
2024/02/07 16:20:34;;;;;;;0.00;0.00;;;15.10;87.60;;;;;;6159976;23;20040;-80
2024/02/07 16:23:00;;;;;;;0.00;0.00;;;15.00;87.50;;;;;;6133578;23;20013;-81
2024/02/07 16:25:26;;;;;;;0.00;0.00;;;15.00;87.70;;;;;;6159499;23;20064;-80
2024/02/07 16:27:52;;;;;;;0.00;0.00;;;14.90;87.70;;;;;;6132132;23;20006;-80
2024/02/07 16:30:17;;;;;;;0.10;0.10;;;14.90;87.80;;;;;;6132175;23;20016;-80
2024/02/07 16:32:43;;;;;;;0.10;0.10;;;14.90;87.90;;;;;;6158891;23;20502;-80
2024/02/07 16:35:10;;;;;;;0.00;0.00;;;14.80;87.80;;;;;;6159456;23;20433;-80
2024/02/07 16:37:35;;;;;;;0.10;0.10;;;14.80;87.80;;;;;;6132812;23;20009;-79
2024/02/07 16:40:01;;;;;;;0.00;0.00;;;14.80;87.90;;;;;;6157938;23;20004;-81
2024/02/07 16:42:26;;;;;;;0.00;0.00;;;14.80;87.90;;;;;;6132557;23;20036;-80
2024/02/07 16:44:52;;;;;;;0.10;0.10;;;14.80;87.90;;;;;;6132276;23;20012;-81
2024/02/07 16:47:18;;;;;;;0.10;0.10;;;14.80;88.00;;;;;;6157778;23;20005;-80
2024/02/07 16:49:43;;;;;;;0.00;0.00;;;14.80;88.10;;;;;;6158744;23;20029;-83
2024/02/07 16:52:09;;;;;;;0.00;0.00;;;14.80;88.10;;;;;;6117203;23;20013;-80
2024/02/07 16:57:50;;;;;;;0.10;0.10;;;14.80;88.00;;;;;;6158608;23;20068;-89
2024/02/07 17:00:16;;;;;;;0.00;0.00;;;14.80;88.10;;;;;;6133377;23;20005;-82
2024/02/07 17:02:43;;;;;;;0.10;0.10;;;14.80;88.00;;;;;;6133459;23;20063;-88
2024/02/07 17:05:10;;;;;;;0.10;0.10;;;14.70;88.10;;;;;;6115770;23;20013;-88
2024/02/07 17:07:35;;;;;;;0.08;0.08;;;14.70;88.10;;;;;;6129395;23;20033;-88
2024/02/07 17:10:01;;;;;;;0.10;0.10;;;14.70;88.10;;;;;;6157840;23;20005;-88
2024/02/07 17:12:26;;;;;;;0.10;0.10;;;14.70;88.30;;;;;;6157107;23;20005;-89
2024/02/07 17:14:55;;;;;;;0.00;0.00;;;14.60;88.30;;;;;;6128168;23;20037;-87
2024/02/07 17:17:21;;;;;;;0.00;0.00;;;14.60;88.40;;;;;;6132086;23;20047;-87
2024/02/07 17:19:47;;;;;;;0.10;0.10;;;14.60;88.40;;;;;;6155008;23;20005;-89
2024/02/07 17:22:14;;;;;;;0.10;0.10;;;14.60;88.40;;;;;;6156999;23;20005;-81
2024/02/07 17:24:40;;;;;;;0.00;0.00;;;14.60;88.50;;;;;;6128260;23;20013;-82
2024/02/07 17:27:06;;;;;;;0.00;0.00;;;14.60;88.40;;;;;;6156801;23;20005;-81
2024/02/07 17:29:32;;;;;;;0.10;0.10;;;14.60;88.40;;;;;;6158527;23;20322;-81
2024/02/07 17:31:59;;;;;;;0.10;0.10;;;14.60;88.50;;;;;;6158322;23;20006;-81
2024/02/07 17:34:25;;;;;;;0.10;0.10;;;14.60;88.50;;;;;;6158137;23;20456;-81
2024/02/07 17:36:56;;;;;;;0.10;0.10;;;14.60;88.40;;;;;;6158387;23;20005;-81
2024/02/07 17:39:22;;;;;;;0.00;0.00;;;14.60;88.50;;;;;;6133842;23;20006;-81
2024/02/07 17:41:48;;;;;;;0.03;0.03;;;14.50;88.60;;;;;;6151913;23;20012;-81
2024/02/07 17:44:17;;;;;;;0.00;0.00;;;14.50;88.50;;;;;;6157890;23;20025;-81
2024/02/07 17:46:43;;;;;;;0.10;0.10;;;14.60;88.40;;;;;;6132042;23;20712;-79
2024/02/07 17:49:08;;;;;;;0.00;0.00;;;14.60;88.50;;;;;;6158807;23;20024;-86
2024/02/07 17:51:34;;;;;;;0.10;0.10;;;14.50;88.50;;;;;;6153991;23;20056;-86
2024/02/07 17:54:03;;;;;;;0.10;0.10;;;14.50;88.70;;;;;;6131403;23;20460;-81
2024/02/07 17:56:29;;;;;;;0.10;0.10;;;14.50;88.60;;;;;;6133621;23;20005;-81
2024/02/07 17:58:54;;;;;;;0.10;0.10;;;14.40;88.60;;;;;;6134234;23;20016;-81
2024/02/07 18:01:20;;;;;;;0.10;0.10;;;14.40;88.70;;;;;;6134409;23;20617;-81
2024/02/07 18:03:45;;;;;;;0.10;0.10;;;14.30;88.80;;;;;;6159573;23;20005;-81
2024/02/07 18:06:11;;;;;;;0.10;0.10;;;14.40;89.00;;;;;;6160307;23;20777;-81
2024/02/07 18:08:39;;;;;;;0.05;0.05;;;14.40;88.80;;;;;;6160465;23;20025;-81
2024/02/07 18:11:04;;;;;;;0.00;0.00;;;14.40;88.70;;;;;;6134168;23;20041;-81
2024/02/07 18:13:30;;;;;;;0.10;0.10;;;14.40;88.90;;;;;;6160500;23;20016;-81
2024/02/07 18:15:57;;;;;;;0.08;0.08;;;14.30;88.80;;;;;;6160434;23;20001;-81
2024/02/07 18:18:24;;;;;;;0.10;0.10;;;14.40;88.90;;;;;;6133894;23;20437;-81
2024/02/07 18:20:50;;;;;;;0.00;0.00;;;14.30;88.80;;;;;;6134630;23;20032;-81
2024/02/07 18:23:15;;;;;;;0.00;0.00;;;14.30;88.90;;;;;;6134802;23;20005;-81
2024/02/07 18:25:41;;;;;;;0.00;0.00;;;14.30;88.90;;;;;;6160407;23;20005;-81
2024/02/07 18:28:07;;;;;;;0.00;0.00;;;14.30;88.90;;;;;;6157506;23;20005;-80
2024/02/07 18:30:33;;;;;;;0.10;0.10;;;14.40;88.70;;;;;;6159021;23;20025;-81
2024/02/07 18:32:59;;;;;;;0.00;0.00;;;14.40;88.80;;;;;;6160049;23;20068;-81
2024/02/07 18:35:26;;;;;;;0.10;0.10;;;14.40;88.80;;;;;;6159956;23;20373;-81
2024/02/07 18:37:51;;;;;;;0.00;0.00;;;14.30;88.80;;;;;;6160134;23;20456;-81
2024/02/07 18:40:17;;;;;;;0.00;0.00;;;14.30;88.70;;;;;;6154964;23;20005;-78
2024/02/07 18:42:43;;;;;;;0.10;0.10;;;14.30;88.80;;;;;;6133951;23;20497;-76
2024/02/07 18:45:08;;;;;;;0.08;0.08;;;14.30;88.70;;;;;;6159505;23;20077;-78
2024/02/07 18:47:34;;;;;;;0.00;0.00;;;14.30;88.80;;;;;;6160592;23;20013;-76
2024/02/07 18:50:00;;;;;;;0.10;0.10;;;14.30;88.90;;;;;;6160342;23;20002;-78
2024/02/07 18:52:25;;;;;;;0.10;0.10;;;14.30;88.90;;;;;;6159755;23;19998;-77
2024/02/07 18:54:51;;;;;;;0.10;0.10;;;14.20;88.80;;;;;;6159947;23;20002;-74
2024/02/07 18:57:16;;;;;;;0.10;0.10;;;14.20;88.80;;;;;;6156549;23;20012;-79
2024/02/07 18:59:42;;;;;;;0.10;0.10;;;14.20;88.90;;;;;;6159603;23;20005;-78